Whitehall, Ohio
Current Conditions -  °F | °C
As of 10:51 PM on Saturday 24 Jan 2015 (Local Time) from KCMH Reporting Station
Overcast Overcast  
Wind Chill: 28°   Ceiling: 2800
Heat Index: 35°   Visibility: 9mi
Dew Point: 28°   Wind: 9mph
Humidity: 76%   Direction: 230°SW
Pressure: 29.75"   Gusts: NA
Location:  39.97°N, 82.88°W
Report Text: KCMH 250351Z 23008KT 9SM OVC028 02/M02 A2975 RMK AO2 SLP083 T00171022
Loading
Personal Weather Stations






























Interactive Weather Map New forecast layout! Learn more

10-Day Weather Forecast

Advertisements
Track Severe Weather on mobile